FLR weather

Peretola Airport
Firenze, Tuscany, Italy

Public forecast

Using degrees Celsius for public forecast. Weather courtesy of forecast.io.

METAR (pilot weather report)

Retrieved 2019/05/21 10:20 UTC (0 seconds ago):

LIRQ 211020Z 24007KT 9999 SCT020 BKN040 17/14 Q1012

TAF (pilot weather forecast)

Retrieved 2019/05/21 06:21 UTC (4 hours ago):

TAF LIRQ 210500Z 2106/2206 VRB05KT 9999 SCT030 TEMPO 2106/2111 RA BECMG 2108/2110 22010KT